createdAt,value
2023-03-17T00:01:04.425Z,4.70
2023-03-17T00:06:13.026Z,4.60
2023-03-17T00:11:18.760Z,4.60
2023-03-17T00:16:24.383Z,4.60
2023-03-17T00:21:30.615Z,4.50
2023-03-17T00:26:35.482Z,4.60
2023-03-17T00:31:40.111Z,4.60
2023-03-17T00:36:47.186Z,4.60
2023-03-17T00:41:51.929Z,4.70
2023-03-17T00:46:56.544Z,4.70
2023-03-17T00:52:00.252Z,4.80
2023-03-17T00:57:04.907Z,5.00
2023-03-17T01:02:12.392Z,5.10
2023-03-17T01:07:15.967Z,5.20
2023-03-17T01:12:20.672Z,5.30
2023-03-17T01:17:25.582Z,5.40
2023-03-17T01:22:29.141Z,5.40
2023-03-17T01:27:37.761Z,5.40
2023-03-17T01:32:41.145Z,5.40
2023-03-17T01:37:45.140Z,5.40
2023-03-17T01:42:53.641Z,5.50
2023-03-17T01:47:57.468Z,5.40
2023-03-17T01:53:00.976Z,5.40
2023-03-17T01:58:05.590Z,5.40
2023-03-17T02:03:09.398Z,5.40
2023-03-17T02:08:14.842Z,5.30
2023-03-17T02:13:19.708Z,5.30
2023-03-17T02:18:28.986Z,5.30
2023-03-17T02:23:34.346Z,5.20
2023-03-17T02:28:37.554Z,5.10
2023-03-17T02:33:41.080Z,5.10
2023-03-17T02:38:46.117Z,5.10
2023-03-17T02:43:49.723Z,5.10
2023-03-17T02:48:53.651Z,5.10
2023-03-17T02:53:58.304Z,5.10
2023-03-17T02:59:01.700Z,5.10
2023-03-17T03:04:04.929Z,5.20
2023-03-17T03:09:11.065Z,5.10
2023-03-17T03:14:15.036Z,5.20
2023-03-17T03:19:18.778Z,5.20
2023-03-17T03:24:23.771Z,5.30
2023-03-17T03:29:27.506Z,5.30
2023-03-17T03:34:30.895Z,5.40
2023-03-17T03:39:35.510Z,5.40
2023-03-17T03:44:39.300Z,5.40
2023-03-17T03:49:45.241Z,5.50
2023-03-17T03:54:50.598Z,5.60
2023-03-17T03:59:54.300Z,5.60
2023-03-17T04:04:58.249Z,5.70
2023-03-17T04:10:03.387Z,5.70
2023-03-17T04:15:08.014Z,5.70
2023-03-17T04:20:13.504Z,5.70
2023-03-17T04:25:19.015Z,5.70
2023-03-17T04:30:22.588Z,5.70
2023-03-17T04:35:25.842Z,5.70
2023-03-17T04:40:31.085Z,5.70
2023-03-17T04:45:34.990Z,5.70
2023-03-17T04:50:39.170Z,5.70
2023-03-17T04:55:43.913Z,5.70
2023-03-17T05:00:47.761Z,5.60
2023-03-17T05:05:51.651Z,5.60
2023-03-17T05:10:56.487Z,5.50
2023-03-17T05:16:01.204Z,5.50
2023-03-17T05:21:05.756Z,5.50
2023-03-17T05:26:11.337Z,5.50
2023-03-17T05:31:14.700Z,5.50
2023-03-17T05:36:18.560Z,5.50
2023-03-17T05:41:23.604Z,5.50
2023-03-17T05:46:28.065Z,5.40
2023-03-17T05:51:31.959Z,5.40
2023-03-17T05:56:36.974Z,5.30
2023-03-17T06:01:40.696Z,5.30
2023-03-17T06:06:44.224Z,5.40
2023-03-17T06:11:48.964Z,5.70
2023-03-17T06:16:52.775Z,5.70
2023-03-17T06:21:56.508Z,5.80
2023-03-17T06:27:01.425Z,5.90
2023-03-17T06:32:19.211Z,6.00
2023-03-17T06:37:24.699Z,6.10
2023-03-17T06:42:29.758Z,6.20
2023-03-17T06:47:34.524Z,6.30
2023-03-17T06:52:38.432Z,6.40
2023-03-17T06:57:43.689Z,6.40
2023-03-17T07:02:48.008Z,6.50
2023-03-17T07:07:51.774Z,6.50
2023-03-17T07:12:56.678Z,6.50
2023-03-17T07:18:00.254Z,6.50
2023-03-17T07:23:03.824Z,6.60
2023-03-17T07:28:08.565Z,6.70
2023-03-17T07:33:12.599Z,7.00
2023-03-17T07:38:16.967Z,7.20
2023-03-17T07:43:21.763Z,7.70
2023-03-17T07:48:25.395Z,8.00
2023-03-17T07:53:29.932Z,8.30
2023-03-17T07:58:34.889Z,8.50
2023-03-17T08:03:41.333Z,8.70
2023-03-17T08:08:45.238Z,8.90
2023-03-17T08:13:51.090Z,9.20
2023-03-17T08:18:54.731Z,9.40
2023-03-17T08:23:58.125Z,9.70
2023-03-17T08:29:03.118Z,9.90
2023-03-17T08:34:06.703Z,10.30
2023-03-17T08:39:10.805Z,10.60
2023-03-17T08:44:16.907Z,10.90
2023-03-17T08:49:22.098Z,11.20
2023-03-17T08:54:25.417Z,11.40
2023-03-17T08:59:30.472Z,11.60
2023-03-17T09:04:34.355Z,11.80
2023-03-17T09:09:38.386Z,12.00
2023-03-17T09:14:44.838Z,12.10
2023-03-17T09:19:48.483Z,12.30
2023-03-17T09:24:51.833Z,12.70
2023-03-17T09:29:56.710Z,13.00
2023-03-17T09:35:00.340Z,13.50
2023-03-17T09:40:08.586Z,13.50
2023-03-17T09:45:21.163Z,13.80
2023-03-17T09:50:28.508Z,14.20
2023-03-17T09:55:33.996Z,14.30
2023-03-17T10:00:39.767Z,14.60
2023-03-17T10:05:43.353Z,14.80
2023-03-17T10:10:50.696Z,14.90
2023-03-17T10:16:00.082Z,15.20
2023-03-17T10:21:08.075Z,15.40
2023-03-17T10:26:31.224Z,15.60
2023-03-17T10:31:38.169Z,15.80
2023-03-17T10:36:44.949Z,16.00
2023-03-17T10:41:56.164Z,16.00
2023-03-17T10:47:01.190Z,16.00
2023-03-17T10:52:09.012Z,16.20
2023-03-17T10:57:15.777Z,16.50
2023-03-17T11:02:26.104Z,16.60
2023-03-17T11:07:35.186Z,16.90
2023-03-17T11:12:41.457Z,17.10
2023-03-17T11:17:52.971Z,17.10
2023-03-17T11:23:02.576Z,17.20
2023-03-17T11:28:19.412Z,17.10
2023-03-17T11:33:35.187Z,17.10
2023-03-17T11:38:45.351Z,16.90
2023-03-17T11:44:01.935Z,16.80
2023-03-17T11:49:13.371Z,16.80
2023-03-17T11:54:24.174Z,16.70
2023-03-17T11:59:35.452Z,16.90
2023-03-17T12:04:50.001Z,16.90
2023-03-17T12:10:03.050Z,17.10
2023-03-17T12:15:15.920Z,17.00
2023-03-17T12:20:26.643Z,17.10
2023-03-17T12:25:34.495Z,17.20
2023-03-17T12:30:48.005Z,17.40
2023-03-17T12:35:53.553Z,17.50
2023-03-17T12:41:17.024Z,17.60
2023-03-17T12:46:38.086Z,17.80
2023-03-17T12:52:04.591Z,18.00
2023-03-17T12:57:14.941Z,18.20
2023-03-17T13:02:25.634Z,18.10
2023-03-17T13:07:38.606Z,18.10
2023-03-17T13:13:13.822Z,18.20
2023-03-17T13:18:48.106Z,18.10
2023-03-17T13:24:00.115Z,18.10
2023-03-17T13:29:23.984Z,18.30
2023-03-17T13:34:30.336Z,18.30
2023-03-17T13:40:09.471Z,18.30
2023-03-17T13:45:37.560Z,18.60
2023-03-17T13:50:42.231Z,18.60
2023-03-17T13:56:12.155Z,18.40
2023-03-17T14:01:16.999Z,18.40
2023-03-17T14:06:22.473Z,18.50
2023-03-17T14:11:32.567Z,18.60
2023-03-17T14:16:38.721Z,18.30
2023-03-17T14:21:42.409Z,18.30
2023-03-17T14:26:48.309Z,18.20
2023-03-17T14:32:00.428Z,17.90
2023-03-17T14:37:05.961Z,17.90
2023-03-17T14:42:11.895Z,17.90
2023-03-17T14:47:21.198Z,17.90
2023-03-17T14:52:28.053Z,17.90
2023-03-17T14:57:35.143Z,17.70
2023-03-17T15:02:40.825Z,17.60
2023-03-17T15:07:44.750Z,17.50
2023-03-17T15:12:49.956Z,17.50
2023-03-17T15:17:55.919Z,17.40
2023-03-17T15:23:01.438Z,17.20
2023-03-17T15:28:12.821Z,17.20
2023-03-17T15:33:23.241Z,17.00
2023-03-17T15:38:27.061Z,17.00
2023-03-17T15:43:31.763Z,16.90
2023-03-17T15:48:37.372Z,16.70
2023-03-17T15:53:40.998Z,16.60
2023-03-17T15:58:46.531Z,16.60
2023-03-17T16:03:51.012Z,16.50
2023-03-17T16:08:54.617Z,16.40
2023-03-17T16:14:00.461Z,16.40
2023-03-17T16:19:05.728Z,16.40
2023-03-17T16:24:11.446Z,16.30
2023-03-17T16:29:22.144Z,16.20
2023-03-17T16:34:26.246Z,16.00
2023-03-17T16:39:33.574Z,15.90
2023-03-17T16:44:38.691Z,15.80
2023-03-17T16:49:41.995Z,15.60
2023-03-17T16:54:45.388Z,15.50
2023-03-17T16:59:50.408Z,15.40
2023-03-17T17:04:53.807Z,15.30
2023-03-17T17:09:57.467Z,15.20
2023-03-17T17:15:02.134Z,14.90
2023-03-17T17:20:07.691Z,14.80
2023-03-17T17:25:11.177Z,14.60
2023-03-17T17:30:19.364Z,14.30
2023-03-17T17:35:23.280Z,14.10
2023-03-17T17:40:26.719Z,14.00
2023-03-17T17:45:32.702Z,13.80
2023-03-17T17:50:36.186Z,13.60
2023-03-17T17:55:40.816Z,13.50
2023-03-17T18:00:45.836Z,13.40
2023-03-17T18:05:49.127Z,13.30
2023-03-17T18:10:52.589Z,13.10
2023-03-17T18:15:57.307Z,13.00
2023-03-17T18:21:00.951Z,12.90
2023-03-17T18:26:06.032Z,12.80
2023-03-17T18:31:16.519Z,12.70
2023-03-17T18:36:21.118Z,12.50
2023-03-17T18:41:24.908Z,12.40
2023-03-17T18:46:29.719Z,12.30
2023-03-17T18:51:33.460Z,12.20
2023-03-17T18:56:36.637Z,12.20
2023-03-17T19:01:41.348Z,12.10
2023-03-17T19:06:44.648Z,12.10
2023-03-17T19:11:47.882Z,12.10
2023-03-17T19:16:52.965Z,12.00
2023-03-17T19:21:56.339Z,12.00
2023-03-17T19:26:59.593Z,11.90
2023-03-17T19:32:04.256Z,11.80
2023-03-17T19:37:07.560Z,11.80
2023-03-17T19:42:12.072Z,11.80
2023-03-17T19:47:16.883Z,11.70
2023-03-17T19:52:20.255Z,11.80
2023-03-17T19:57:23.897Z,11.80
2023-03-17T20:02:28.678Z,11.70
2023-03-17T20:07:33.016Z,11.60
2023-03-17T20:12:38.189Z,11.60
2023-03-17T20:17:43.108Z,11.60
2023-03-17T20:22:46.744Z,11.50
2023-03-17T20:27:50.176Z,11.40
2023-03-17T20:32:55.352Z,11.40
2023-03-17T20:37:58.833Z,11.30
2023-03-17T20:43:02.557Z,11.30
2023-03-17T20:48:10.423Z,11.40
2023-03-17T20:53:13.842Z,11.30
2023-03-17T20:58:19.918Z,11.40
2023-03-17T21:03:24.788Z,11.40
2023-03-17T21:08:28.481Z,11.40
2023-03-17T21:13:33.126Z,11.40
2023-03-17T21:18:38.158Z,11.40
2023-03-17T21:23:41.905Z,11.30
2023-03-17T21:28:45.410Z,11.20
2023-03-17T21:33:50.765Z,11.10
2023-03-17T21:38:54.084Z,11.20
2023-03-17T21:43:58.098Z,11.10
2023-03-17T21:49:02.836Z,11.20
2023-03-17T21:54:06.462Z,11.20
2023-03-17T21:59:11.092Z,11.20
2023-03-17T22:04:15.783Z,11.20
2023-03-17T22:09:19.420Z,11.10
2023-03-17T22:14:22.785Z,11.10
2023-03-17T22:19:28.689Z,11.10
2023-03-17T22:24:32.424Z,11.00
2023-03-17T22:29:36.760Z,11.00
2023-03-17T22:34:41.436Z,11.00
2023-03-17T22:39:44.716Z,11.00
2023-03-17T22:44:47.937Z,11.00
2023-03-17T22:49:52.574Z,11.00
2023-03-17T22:54:56.209Z,11.00
2023-03-17T22:59:59.477Z,10.90
2023-03-17T23:05:04.887Z,10.80
2023-03-17T23:10:09.847Z,10.70
2023-03-17T23:15:13.651Z,10.70
2023-03-17T23:20:19.026Z,10.60
2023-03-17T23:25:23.225Z,10.60
2023-03-17T23:30:26.718Z,10.50
2023-03-17T23:35:32.313Z,10.50
2023-03-17T23:40:36.076Z,10.50
2023-03-17T23:45:41.244Z,10.40
2023-03-17T23:50:46.038Z,10.40
2023-03-17T23:55:49.410Z,10.30
